createdAt,value
2019-03-25T00:01:53.995Z,22.20
2019-03-25T00:04:25.447Z,22.57
2019-03-25T00:06:57.509Z,21.63
2019-03-25T00:09:31.522Z,22.10
2019-03-25T00:12:03.316Z,21.43
2019-03-25T00:14:36.281Z,21.80
2019-03-25T00:17:07.952Z,19.77
2019-03-25T00:19:39.784Z,21.03
2019-03-25T00:22:11.205Z,20.47
2019-03-25T00:24:42.530Z,20.30
2019-03-25T00:27:14.177Z,20.90
2019-03-25T00:29:45.824Z,21.07
2019-03-25T00:32:17.740Z,20.93
2019-03-25T00:34:50.358Z,20.13
2019-03-25T00:37:22.343Z,21.13
2019-03-25T00:39:54.059Z,21.43
2019-03-25T00:42:26.054Z,21.37
2019-03-25T00:44:58.647Z,21.50
2019-03-25T00:47:30.077Z,21.03
2019-03-25T00:50:01.901Z,21.00
2019-03-25T00:52:34.179Z,21.80
2019-03-25T00:55:06.635Z,20.40
2019-03-25T00:57:39.470Z,19.70
2019-03-25T01:00:11.714Z,21.17
2019-03-25T01:02:43.274Z,20.10
2019-03-25T01:05:16.138Z,20.20
2019-03-25T01:07:48.658Z,19.63
2019-03-25T01:10:20.427Z,20.00
2019-03-25T01:12:52.154Z,20.23
2019-03-25T01:15:25.333Z,20.70
2019-03-25T01:17:57.251Z,20.47
2019-03-25T01:20:28.962Z,20.80
2019-03-25T01:23:00.915Z,20.90
2019-03-25T01:25:32.788Z,21.30
2019-03-25T01:28:05.187Z,21.57
2019-03-25T01:30:37.632Z,21.40
2019-03-25T01:33:09.627Z,22.00
2019-03-25T01:35:42.543Z,19.33
2019-03-25T01:38:14.820Z,20.97
2019-03-25T01:40:48.504Z,20.50
2019-03-25T01:43:20.113Z,20.80
2019-03-25T01:45:52.231Z,20.63
2019-03-25T01:48:23.671Z,20.00
2019-03-25T01:50:59.681Z,21.20
2019-03-25T01:53:31.884Z,21.17
2019-03-25T01:56:05.508Z,20.03
2019-03-25T01:58:38.596Z,19.63
2019-03-25T02:01:10.668Z,19.37
2019-03-25T02:03:43.064Z,20.93
2019-03-25T02:06:16.399Z,19.60
2019-03-25T02:08:48.529Z,18.20
2019-03-25T02:11:22.216Z,19.30
2019-03-25T02:13:54.071Z,20.37
2019-03-25T02:16:25.919Z,18.60
2019-03-25T02:18:57.705Z,19.80
2019-03-25T02:21:29.789Z,18.50
2019-03-25T02:24:02.149Z,18.10
2019-03-25T02:26:33.880Z,17.30
2019-03-25T02:29:06.112Z,17.40
2019-03-25T02:31:38.082Z,19.47
2019-03-25T02:34:12.602Z,17.33
2019-03-25T02:36:44.506Z,18.53
2019-03-25T02:39:16.558Z,18.40
2019-03-25T02:41:49.113Z,18.50
2019-03-25T02:44:21.529Z,18.77
2019-03-25T02:46:54.748Z,19.40
2019-03-25T02:49:27.191Z,17.93
2019-03-25T02:51:59.882Z,18.37
2019-03-25T02:54:31.629Z,17.60
2019-03-25T02:57:03.999Z,19.63
2019-03-25T02:59:35.946Z,18.37
2019-03-25T03:02:08.766Z,17.53
2019-03-25T03:04:40.869Z,20.03
2019-03-25T03:07:14.636Z,17.90
2019-03-25T03:09:46.598Z,19.00
2019-03-25T03:12:18.236Z,20.53
2019-03-25T03:14:50.185Z,20.73
2019-03-25T03:17:22.156Z,19.60
2019-03-25T03:19:55.310Z,22.53
2019-03-25T03:22:27.881Z,20.93
2019-03-25T03:25:02.321Z,22.63
2019-03-25T03:27:34.278Z,21.70
2019-03-25T03:30:06.121Z,21.30
2019-03-25T03:32:38.932Z,20.13
2019-03-25T03:35:11.108Z,19.23
2019-03-25T03:37:43.778Z,18.40
2019-03-25T03:40:16.293Z,19.33
2019-03-25T03:42:49.399Z,18.53
2019-03-25T03:45:21.153Z,16.33
2019-03-25T03:47:53.465Z,17.37
2019-03-25T03:50:29.634Z,16.70
2019-03-25T03:53:01.836Z,15.90
2019-03-25T03:55:34.940Z,17.67
2019-03-25T03:58:06.884Z,16.20
2019-03-25T04:00:39.549Z,17.37
2019-03-25T04:03:11.754Z,15.77
2019-03-25T04:05:44.373Z,16.10
2019-03-25T04:08:17.477Z,17.40
2019-03-25T04:10:49.939Z,16.80
2019-03-25T04:13:21.833Z,15.63
2019-03-25T04:15:54.429Z,14.47
2019-03-25T04:18:27.032Z,16.27
2019-03-25T04:20:58.750Z,16.40
2019-03-25T04:23:30.506Z,15.77
2019-03-25T04:26:02.123Z,14.93
2019-03-25T04:28:34.243Z,14.73
2019-03-25T04:31:06.276Z,14.33
2019-03-25T04:33:38.005Z,15.43
2019-03-25T04:36:10.117Z,14.83
2019-03-25T04:38:41.842Z,15.00
2019-03-25T04:41:13.781Z,14.10
2019-03-25T04:43:46.058Z,16.10
2019-03-25T04:46:19.470Z,15.63
2019-03-25T04:48:51.163Z,15.57
2019-03-25T04:51:23.905Z,15.00
2019-03-25T04:53:55.397Z,14.77
2019-03-25T04:56:38.764Z,14.60
2019-03-25T04:59:01.678Z,15.87
2019-03-25T05:01:33.519Z,12.40
2019-03-25T05:04:06.268Z,13.60
2019-03-25T05:06:39.225Z,13.10
2019-03-25T05:09:12.477Z,13.60
2019-03-25T05:11:44.548Z,14.00
2019-03-25T05:14:17.796Z,12.93
2019-03-25T05:16:49.736Z,13.50
2019-03-25T05:19:21.614Z,13.97
2019-03-25T05:21:53.634Z,13.50
2019-03-25T05:24:25.236Z,12.63
2019-03-25T05:26:56.960Z,12.87
2019-03-25T05:29:32.040Z,13.93
2019-03-25T05:32:03.807Z,13.30
2019-03-25T05:34:35.925Z,13.87
2019-03-25T05:37:08.622Z,14.97
2019-03-25T05:39:42.164Z,14.20
2019-03-25T05:42:14.279Z,13.40
2019-03-25T05:44:46.745Z,14.50
2019-03-25T05:47:18.454Z,15.67
2019-03-25T05:49:50.646Z,15.40
2019-03-25T05:52:23.642Z,17.10
2019-03-25T05:54:56.959Z,15.73
2019-03-25T05:57:29.460Z,15.40
2019-03-25T06:00:01.605Z,16.97
2019-03-25T06:02:33.797Z,16.30
2019-03-25T06:05:06.053Z,15.80
2019-03-25T06:07:38.313Z,15.53
2019-03-25T06:10:11.435Z,14.97
2019-03-25T06:12:43.113Z,15.70
2019-03-25T06:15:15.547Z,14.77
2019-03-25T06:17:47.714Z,14.47
2019-03-25T06:20:20.433Z,16.30
2019-03-25T06:22:53.200Z,13.53
2019-03-25T06:25:24.924Z,15.50
2019-03-25T06:27:59.742Z,14.60
2019-03-25T06:30:35.025Z,15.03
2019-03-25T06:33:12.594Z,14.40
2019-03-25T06:35:41.857Z,16.60
2019-03-25T06:38:14.512Z,17.30
2019-03-25T06:40:49.221Z,15.60
2019-03-25T06:43:21.470Z,15.70
2019-03-25T06:45:54.215Z,17.67
2019-03-25T06:48:26.375Z,17.13
2019-03-25T06:50:58.698Z,17.67
2019-03-25T06:53:30.625Z,17.60
2019-03-25T06:56:05.840Z,17.80
2019-03-25T06:58:37.843Z,17.63
2019-03-25T07:01:09.949Z,19.20
2019-03-25T07:03:41.725Z,17.50
2019-03-25T07:06:13.437Z,18.23
2019-03-25T07:08:45.236Z,18.23
2019-03-25T07:11:17.181Z,18.50
2019-03-25T07:13:49.601Z,18.40
2019-03-25T07:16:22.444Z,19.10
2019-03-25T07:18:54.680Z,19.20
2019-03-25T07:21:28.337Z,19.00
2019-03-25T07:24:00.881Z,19.00
2019-03-25T07:26:33.483Z,18.87
2019-03-25T07:29:06.731Z,19.33
2019-03-25T07:31:39.399Z,17.90
2019-03-25T07:34:11.710Z,19.13
2019-03-25T07:36:43.585Z,18.80
2019-03-25T07:39:15.888Z,18.97
2019-03-25T07:41:49.511Z,18.33
2019-03-25T07:44:25.138Z,18.10
2019-03-25T07:46:57.951Z,17.90
2019-03-25T07:49:30.056Z,17.00
2019-03-25T07:52:03.122Z,17.43
2019-03-25T07:54:36.575Z,17.17
2019-03-25T07:57:08.628Z,18.83
2019-03-25T07:59:40.970Z,19.07
2019-03-25T08:02:15.175Z,18.93
2019-03-25T08:04:46.669Z,18.70
2019-03-25T08:07:18.658Z,17.13
2019-03-25T08:09:52.422Z,17.77
2019-03-25T08:12:24.087Z,17.63
2019-03-25T08:14:56.591Z,17.83
2019-03-25T08:17:29.323Z,18.07
2019-03-25T08:20:01.947Z,16.70
2019-03-25T08:22:35.037Z,16.57
2019-03-25T08:25:07.200Z,17.40
2019-03-25T08:27:39.713Z,16.90
2019-03-25T08:30:11.768Z,16.73
2019-03-25T08:32:43.964Z,16.53
2019-03-25T08:35:16.686Z,18.27
2019-03-25T08:37:48.877Z,16.27
2019-03-25T08:40:21.166Z,16.60
2019-03-25T08:42:53.390Z,16.93
2019-03-25T08:45:26.713Z,18.07
2019-03-25T08:47:58.903Z,16.60
2019-03-25T08:50:30.879Z,19.80
2019-03-25T08:53:03.391Z,18.80
2019-03-25T08:55:38.606Z,19.00
2019-03-25T08:58:12.366Z,16.37
2019-03-25T09:00:43.860Z,18.60
2019-03-25T09:03:15.527Z,19.00
2019-03-25T09:05:47.549Z,18.50
2019-03-25T09:08:19.174Z,17.10
2019-03-25T09:10:52.362Z,19.57
2019-03-25T09:13:23.924Z,16.90
2019-03-25T09:15:55.511Z,18.00
2019-03-25T09:18:27.351Z,19.17
2019-03-25T09:20:59.636Z,19.03
2019-03-25T09:23:31.249Z,18.20
2019-03-25T09:26:05.030Z,16.80
2019-03-25T09:28:39.630Z,16.97
2019-03-25T09:31:19.758Z,16.30
2019-03-25T09:33:52.465Z,16.40
2019-03-25T09:36:25.367Z,17.33
2019-03-25T09:38:58.961Z,17.60
2019-03-25T09:41:32.372Z,18.13
2019-03-25T09:44:04.066Z,19.17
2019-03-25T09:46:35.582Z,20.03
2019-03-25T09:49:08.581Z,20.53
2019-03-25T09:51:40.599Z,20.70
2019-03-25T09:54:13.790Z,21.07
2019-03-25T09:56:45.770Z,18.37
2019-03-25T09:59:18.258Z,17.40
2019-03-25T10:01:50.023Z,20.63
2019-03-25T10:04:21.916Z,23.07
2019-03-25T10:06:54.344Z,21.10
2019-03-25T10:09:27.634Z,19.97
2019-03-25T10:11:59.838Z,19.97
2019-03-25T10:14:32.811Z,20.40
2019-03-25T10:17:04.700Z,21.57
2019-03-25T10:19:36.555Z,20.90
2019-03-25T10:22:08.599Z,19.20
2019-03-25T10:24:40.832Z,18.30
2019-03-25T10:27:13.587Z,19.10
2019-03-25T10:29:45.649Z,19.30
2019-03-25T10:32:17.792Z,18.50
2019-03-25T10:34:49.697Z,18.90
2019-03-25T10:37:21.200Z,19.10
2019-03-25T10:39:54.110Z,20.60
2019-03-25T10:42:26.591Z,20.80
2019-03-25T10:44:59.898Z,20.20
2019-03-25T10:47:31.667Z,21.40
2019-03-25T10:50:03.528Z,20.30
2019-03-25T10:52:35.927Z,19.30
2019-03-25T10:55:07.880Z,22.20
2019-03-25T10:57:39.771Z,19.73
2019-03-25T11:00:15.709Z,20.50
2019-03-25T11:02:47.597Z,21.67
2019-03-25T11:05:20.230Z,19.57
2019-03-25T11:07:51.837Z,20.13
2019-03-25T11:10:23.593Z,18.27
2019-03-25T11:12:55.612Z,18.80
2019-03-25T11:15:28.288Z,17.90
2019-03-25T11:18:00.909Z,17.70
2019-03-25T11:20:33.628Z,19.30
2019-03-25T11:23:05.896Z,16.87
2019-03-25T11:25:37.792Z,14.70
2019-03-25T11:28:09.636Z,13.83
2019-03-25T11:31:00.212Z,12.87
2019-03-25T11:33:32.498Z,13.57
2019-03-25T11:36:04.818Z,12.30
2019-03-25T11:38:37.853Z,10.43
2019-03-25T11:41:10.493Z,11.00
2019-03-25T11:43:42.970Z,10.70
2019-03-25T11:46:16.593Z,12.97
2019-03-25T11:48:49.379Z,14.87
2019-03-25T11:51:21.641Z,13.70
2019-03-25T11:53:53.423Z,14.50
2019-03-25T11:56:25.007Z,15.00
2019-03-25T11:58:57.418Z,14.63
2019-03-25T12:01:32.277Z,15.40
2019-03-25T12:04:04.028Z,15.67
2019-03-25T12:06:36.206Z,15.53
2019-03-25T12:09:11.002Z,15.13
2019-03-25T12:11:43.162Z,14.40
2019-03-25T12:14:15.846Z,14.30
2019-03-25T12:16:48.003Z,14.53
2019-03-25T12:19:20.515Z,12.20
2019-03-25T12:21:52.591Z,11.70
2019-03-25T12:24:25.161Z,12.03
2019-03-25T12:26:57.412Z,12.63
2019-03-25T12:29:31.269Z,13.63
2019-03-25T12:32:03.910Z,11.90
2019-03-25T12:34:35.836Z,11.63
2019-03-25T12:37:07.677Z,12.37
2019-03-25T12:39:40.203Z,12.47
2019-03-25T12:42:12.263Z,13.90
2019-03-25T12:44:44.712Z,13.33
2019-03-25T12:47:17.833Z,14.30
2019-03-25T12:49:50.445Z,15.47
2019-03-25T12:52:23.160Z,14.03
2019-03-25T12:54:54.868Z,14.67
2019-03-25T12:57:26.766Z,14.60
2019-03-25T12:59:59.265Z,13.23
2019-03-25T13:02:30.865Z,12.40
2019-03-25T13:05:02.638Z,13.53
2019-03-25T13:07:37.876Z,13.70
2019-03-25T13:10:11.481Z,14.70
2019-03-25T13:12:43.956Z,13.87
2019-03-25T13:15:16.356Z,15.70
2019-03-25T13:17:48.463Z,16.37
2019-03-25T13:20:22.833Z,15.30
2019-03-25T13:22:54.596Z,13.83
2019-03-25T13:25:26.908Z,14.50
2019-03-25T13:27:58.790Z,14.70
2019-03-25T13:30:30.839Z,16.77
2019-03-25T13:33:03.042Z,16.27
2019-03-25T13:35:35.276Z,13.60
2019-03-25T13:38:06.914Z,15.30
2019-03-25T13:40:41.009Z,14.67
2019-03-25T13:43:13.066Z,15.40
2019-03-25T13:45:45.325Z,15.80
2019-03-25T13:48:18.009Z,16.47
2019-03-25T13:50:50.645Z,17.77
2019-03-25T13:53:23.359Z,16.30
2019-03-25T13:55:55.665Z,16.97
2019-03-25T13:58:28.438Z,15.80
2019-03-25T14:01:01.390Z,15.40
2019-03-25T14:03:33.399Z,15.03
2019-03-25T14:06:07.266Z,14.37
2019-03-25T14:08:39.598Z,13.73
2019-03-25T14:11:11.796Z,13.10
2019-03-25T14:13:49.257Z,12.07
2019-03-25T14:16:17.638Z,15.10
2019-03-25T14:18:50.437Z,14.33
2019-03-25T14:21:22.601Z,13.97
2019-03-25T14:23:54.912Z,14.63
2019-03-25T14:26:28.872Z,14.80
2019-03-25T14:29:03.129Z,13.80
2019-03-25T14:31:35.874Z,13.57
2019-03-25T14:34:09.005Z,13.70
2019-03-25T14:36:43.614Z,14.13
2019-03-25T14:39:16.109Z,13.63
2019-03-25T14:41:49.281Z,13.77
2019-03-25T14:44:21.393Z,13.40
2019-03-25T14:46:55.596Z,14.90
2019-03-25T14:49:28.319Z,14.13
2019-03-25T14:52:01.135Z,13.23
2019-03-25T14:54:33.520Z,14.77
2019-03-25T14:57:06.604Z,13.53
2019-03-25T14:59:39.471Z,12.40
2019-03-25T15:02:13.524Z,13.10
2019-03-25T15:04:46.805Z,11.70
2019-03-25T15:07:19.399Z,11.97
2019-03-25T15:09:52.617Z,12.47
2019-03-25T15:12:25.925Z,13.13
2019-03-25T15:15:02.275Z,15.53
2019-03-25T15:17:35.004Z,14.60
2019-03-25T15:20:10.063Z,14.63
2019-03-25T15:22:43.614Z,16.60
2019-03-25T15:25:19.460Z,18.10
2019-03-25T15:27:52.039Z,13.40
2019-03-25T15:30:35.906Z,12.97
2019-03-25T15:33:03.064Z,12.90
2019-03-25T15:35:36.653Z,14.00
2019-03-25T15:38:09.984Z,12.23
2019-03-25T15:40:44.215Z,14.37
2019-03-25T15:43:18.923Z,12.70
2019-03-25T15:45:52.300Z,12.80
2019-03-25T15:48:25.803Z,12.57
2019-03-25T15:50:59.280Z,12.50
2019-03-25T15:53:33.005Z,12.87
2019-03-25T15:56:06.433Z,12.77
2019-03-25T15:58:40.198Z,13.03
2019-03-25T16:01:20.364Z,12.70
2019-03-25T16:03:53.715Z,12.70
2019-03-25T16:06:26.553Z,12.50
2019-03-25T16:09:00.054Z,12.77
2019-03-25T16:11:34.229Z,14.70
2019-03-25T16:14:07.562Z,13.37
2019-03-25T16:16:40.646Z,12.83
2019-03-25T16:19:13.671Z,13.37
2019-03-25T16:21:45.839Z,13.73
2019-03-25T16:24:18.911Z,13.90
2019-03-25T16:26:52.824Z,14.13
2019-03-25T16:29:26.284Z,14.50
2019-03-25T16:32:00.188Z,14.20
2019-03-25T16:34:33.225Z,14.43
2019-03-25T16:37:06.277Z,15.30
2019-03-25T16:39:39.383Z,14.90
2019-03-25T16:42:12.172Z,14.33
2019-03-25T16:44:44.894Z,14.47
2019-03-25T16:47:18.906Z,14.07
2019-03-25T16:49:54.111Z,13.10
2019-03-25T16:52:27.695Z,11.77
2019-03-25T16:55:02.206Z,13.20
2019-03-25T16:57:36.955Z,13.20
2019-03-25T17:00:10.788Z,12.13
2019-03-25T17:02:44.440Z,19.10
2019-03-25T17:05:17.680Z,26.30
2019-03-25T17:07:52.033Z,25.87
2019-03-25T17:10:25.392Z,27.60
2019-03-25T17:12:58.828Z,18.90
2019-03-25T17:15:31.655Z,17.67
2019-03-25T17:18:04.830Z,14.40
2019-03-25T17:20:38.729Z,13.30
2019-03-25T17:23:12.683Z,13.37
2019-03-25T17:25:52.995Z,15.13
2019-03-25T17:28:21.151Z,14.23
2019-03-25T17:30:55.730Z,14.33
2019-03-25T17:33:29.425Z,11.87
2019-03-25T17:36:03.315Z,8.87
2019-03-25T17:38:37.392Z,10.03
2019-03-25T17:41:12.080Z,10.40
2019-03-25T17:43:45.077Z,10.80
2019-03-25T17:46:18.789Z,11.17
2019-03-25T17:48:51.958Z,9.77
2019-03-25T17:51:26.126Z,10.80
2019-03-25T17:54:03.444Z,10.00
2019-03-25T17:56:37.387Z,9.83
2019-03-25T17:59:10.323Z,8.90
2019-03-25T18:01:44.073Z,9.00
2019-03-25T18:04:20.243Z,9.03
2019-03-25T18:06:54.970Z,7.60
2019-03-25T18:09:33.109Z,7.30
2019-03-25T18:12:06.130Z,7.90
2019-03-25T18:14:38.910Z,8.80
2019-03-25T18:17:12.094Z,10.40
2019-03-25T18:19:45.048Z,10.50
2019-03-25T18:22:18.845Z,9.87
2019-03-25T18:24:52.161Z,7.03
2019-03-25T18:27:25.840Z,8.60
2019-03-25T18:30:00.390Z,8.10
2019-03-25T18:32:33.953Z,8.00
2019-03-25T18:35:07.608Z,8.17
2019-03-25T18:37:43.708Z,10.00
2019-03-25T18:40:17.004Z,10.90
2019-03-25T18:42:50.207Z,9.60
2019-03-25T18:45:23.926Z,9.70
2019-03-25T18:47:57.529Z,9.60
2019-03-25T18:50:31.856Z,9.93
2019-03-25T18:53:06.711Z,10.20
2019-03-25T18:55:41.515Z,11.90
2019-03-25T18:58:16.011Z,11.07
2019-03-25T19:00:49.680Z,10.07
2019-03-25T19:03:22.757Z,10.63
2019-03-25T19:05:56.199Z,10.90
2019-03-25T19:08:31.748Z,11.20
2019-03-25T19:11:05.760Z,10.33
2019-03-25T19:13:47.933Z,10.23
2019-03-25T19:16:21.796Z,10.50
2019-03-25T19:18:55.595Z,9.27
2019-03-25T19:21:30.037Z,8.97
2019-03-25T19:24:03.042Z,8.00
2019-03-25T19:26:37.239Z,9.17
2019-03-25T19:29:10.834Z,7.80
2019-03-25T19:31:43.863Z,7.60
2019-03-25T19:34:17.354Z,7.73
2019-03-25T19:36:51.147Z,8.67
2019-03-25T19:39:24.809Z,8.13
2019-03-25T19:41:59.396Z,9.33
2019-03-25T19:44:32.642Z,8.63
2019-03-25T19:47:06.769Z,8.20
2019-03-25T19:49:41.069Z,7.43
2019-03-25T19:52:15.694Z,8.83
2019-03-25T19:54:49.847Z,7.47
2019-03-25T19:57:23.578Z,8.97
2019-03-25T19:59:59.870Z,6.67
2019-03-25T20:02:33.480Z,7.67
2019-03-25T20:05:08.852Z,6.77
2019-03-25T20:07:42.863Z,7.60
2019-03-25T20:10:31.847Z,9.30
2019-03-25T20:13:07.139Z,8.10
2019-03-25T20:15:46.134Z,7.40
2019-03-25T20:18:15.448Z,8.50
2019-03-25T20:20:48.941Z,8.20
2019-03-25T20:23:21.803Z,7.87
2019-03-25T20:25:56.096Z,8.90
2019-03-25T20:28:29.385Z,10.03
2019-03-25T20:31:02.861Z,9.53
2019-03-25T20:33:38.645Z,9.10
2019-03-25T20:36:13.046Z,8.60
2019-03-25T20:38:49.290Z,10.00
2019-03-25T20:41:20.754Z,9.80
2019-03-25T20:43:54.630Z,8.83
2019-03-25T20:46:28.426Z,8.83
2019-03-25T20:49:01.416Z,8.40
2019-03-25T20:51:37.476Z,9.20
2019-03-25T20:54:10.927Z,8.40
2019-03-25T20:56:44.081Z,9.43
2019-03-25T20:59:18.621Z,9.27
2019-03-25T21:01:52.162Z,8.67
2019-03-25T21:04:26.040Z,10.20
2019-03-25T21:07:01.757Z,9.40
2019-03-25T21:09:35.868Z,9.03
2019-03-25T21:12:09.029Z,8.53
2019-03-25T21:14:43.043Z,8.83
2019-03-25T21:17:16.211Z,8.27
2019-03-25T21:19:48.356Z,9.10
2019-03-25T21:22:20.440Z,9.67
2019-03-25T21:24:52.494Z,8.70
2019-03-25T21:27:25.308Z,8.80
2019-03-25T21:29:57.416Z,9.73
2019-03-25T21:32:29.779Z,9.80
2019-03-25T21:35:01.706Z,10.03
2019-03-25T21:37:33.943Z,10.30
2019-03-25T21:40:08.574Z,9.30
2019-03-25T21:42:41.228Z,9.10
2019-03-25T21:45:13.277Z,10.47
2019-03-25T21:47:46.785Z,10.33
2019-03-25T21:50:19.496Z,10.37
2019-03-25T21:52:52.320Z,10.40
2019-03-25T21:55:24.543Z,10.67
2019-03-25T21:57:56.051Z,10.07
2019-03-25T22:00:27.674Z,11.27
2019-03-25T22:03:11.285Z,10.73
2019-03-25T22:05:49.977Z,11.67
2019-03-25T22:08:24.259Z,12.90
2019-03-25T22:10:57.847Z,12.00
2019-03-25T22:13:30.881Z,10.60
2019-03-25T22:16:03.574Z,10.50
2019-03-25T22:18:36.137Z,10.97
2019-03-25T22:21:08.872Z,12.00
2019-03-25T22:23:42.122Z,12.33
2019-03-25T22:26:15.557Z,13.67
2019-03-25T22:28:48.566Z,13.87
2019-03-25T22:31:21.438Z,12.80
2019-03-25T22:33:53.144Z,23.07
2019-03-25T22:36:25.002Z,14.13
2019-03-25T22:38:56.327Z,14.77
2019-03-25T22:41:27.328Z,16.30
2019-03-25T22:43:58.664Z,16.13
2019-03-25T22:46:29.994Z,13.53
2019-03-25T22:49:01.999Z,13.03
2019-03-25T22:51:34.620Z,12.37
2019-03-25T22:54:06.835Z,12.63
2019-03-25T22:56:39.771Z,13.90
2019-03-25T22:59:11.639Z,12.00
2019-03-25T23:01:43.597Z,12.90
2019-03-25T23:04:16.788Z,11.07
2019-03-25T23:06:48.548Z,11.63
2019-03-25T23:09:20.399Z,11.07
2019-03-25T23:11:52.769Z,12.50
2019-03-25T23:14:24.606Z,12.87
2019-03-25T23:16:56.521Z,11.57
2019-03-25T23:19:30.485Z,12.00
2019-03-25T23:22:02.185Z,11.40
2019-03-25T23:24:33.997Z,12.97
2019-03-25T23:27:06.189Z,12.60
2019-03-25T23:29:38.189Z,12.30
2019-03-25T23:32:10.275Z,12.40
2019-03-25T23:34:42.850Z,12.70
2019-03-25T23:37:14.666Z,12.30
2019-03-25T23:39:47.885Z,12.10
2019-03-25T23:42:19.487Z,13.77
2019-03-25T23:44:51.649Z,15.40
2019-03-25T23:47:26.949Z,16.13
2019-03-25T23:49:58.714Z,13.90
2019-03-25T23:52:30.319Z,12.47
2019-03-25T23:55:02.106Z,12.70
2019-03-25T23:57:34.113Z,12.70
